Terminal Aerodrome Forecast
Issued by NWS

Home | Current Version | Previous Version | Text Only | Print | Product List | Glossary On
Versions: 1 2 3 4 5 6 7 8 9 10 11 12 13 14 15 16 17 18 19 20 21 22 23 24 25 26 27 28 29 30 31 32 33
800
FTUS43 KGLD 260530
TAFMCK
TAF
KMCK 260530Z 2606/2706 21006KT P6SM FEW040 FEW250
     FM261400 34021G29KT P6SM VCSH SCT030 BKN150
     FM262000 36023G31KT P6SM SCT250
     FM270000 36014KT P6SM SKC=

USA.gov is the U.S. government's official web portal to all federal, state and local government web resources and services.